sensor_id;sensor_type;location;lat;lon;timestamp;temperature;humidity
19732;DHT22;10017;54.350;18.532;2022-09-12T00:01:21;10.00;99.90
19732;DHT22;10017;54.350;18.532;2022-09-12T00:03:55;10.10;99.90
19732;DHT22;10017;54.350;18.532;2022-09-12T00:06:30;10.00;99.90
19732;DHT22;10017;54.350;18.532;2022-09-12T00:09:05;10.10;99.90
19732;DHT22;10017;54.350;18.532;2022-09-12T00:11:37;10.10;99.90
19732;DHT22;10017;54.350;18.532;2022-09-12T00:14:11;10.10;99.90
19732;DHT22;10017;54.350;18.532;2022-09-12T00:16:43;10.00;99.90
19732;DHT22;10017;54.350;18.532;2022-09-12T00:19:15;10.00;99.90
19732;DHT22;10017;54.350;18.532;2022-09-12T00:21:47;10.00;99.90
19732;DHT22;10017;54.350;18.532;2022-09-12T00:24:19;10.00;99.90
19732;DHT22;10017;54.350;18.532;2022-09-12T00:26:51;9.90;99.90
19732;DHT22;10017;54.350;18.532;2022-09-12T00:29:22;10.00;99.90
19732;DHT22;10017;54.350;18.532;2022-09-12T00:31:54;10.00;99.90
19732;DHT22;10017;54.350;18.532;2022-09-12T00:34:26;10.00;99.90
19732;DHT22;10017;54.350;18.532;2022-09-12T00:36:58;10.00;99.90
19732;DHT22;10017;54.350;18.532;2022-09-12T00:39:30;9.90;99.90
19732;DHT22;10017;54.350;18.532;2022-09-12T00:42:01;9.90;99.90
19732;DHT22;10017;54.350;18.532;2022-09-12T00:47:09;9.90;99.90
19732;DHT22;10017;54.350;18.532;2022-09-12T00:52:25;9.80;99.90
19732;DHT22;10017;54.350;18.532;2022-09-12T00:57:37;9.90;99.90
19732;DHT22;10017;54.350;18.532;2022-09-12T01:00:11;9.90;99.90
19732;DHT22;10017;54.350;18.532;2022-09-12T01:02:57;9.90;99.90
19732;DHT22;10017;54.350;18.532;2022-09-12T01:05:30;9.90;99.90
19732;DHT22;10017;54.350;18.532;2022-09-12T01:08:04;9.80;99.90
19732;DHT22;10017;54.350;18.532;2022-09-12T01:10:37;9.80;99.90
19732;DHT22;10017;54.350;18.532;2022-09-12T01:13:09;9.80;99.90
19732;DHT22;10017;54.350;18.532;2022-09-12T01:15:41;9.80;99.90
19732;DHT22;10017;54.350;18.532;2022-09-12T01:29:13;9.70;99.90
19732;DHT22;10017;54.350;18.532;2022-09-12T01:34:30;9.70;99.90
19732;DHT22;10017;54.350;18.532;2022-09-12T01:47:50;9.70;99.90
19732;DHT22;10017;54.350;18.532;2022-09-12T01:50:24;9.70;99.90
19732;DHT22;10017;54.350;18.532;2022-09-12T01:55:31;9.70;99.90
19732;DHT22;10017;54.350;18.532;2022-09-12T01:58:11;9.70;99.90
19732;DHT22;10017;54.350;18.532;2022-09-12T02:00:50;9.70;99.90
19732;DHT22;10017;54.350;18.532;2022-09-12T02:03:32;9.70;99.90
19732;DHT22;10017;54.350;18.532;2022-09-12T02:06:11;9.60;99.90
19732;DHT22;10017;54.350;18.532;2022-09-12T02:08:46;9.60;99.90
19732;DHT22;10017;54.350;18.532;2022-09-12T02:11:19;9.60;99.90
19732;DHT22;10017;54.350;18.532;2022-09-12T02:16:30;9.60;99.90
19732;DHT22;10017;54.350;18.532;2022-09-12T02:19:09;9.60;99.90
19732;DHT22;10017;54.350;18.532;2022-09-12T02:21:49;9.60;99.90
19732;DHT22;10017;54.350;18.532;2022-09-12T02:24:27;9.60;99.90
19732;DHT22;10017;54.350;18.532;2022-09-12T02:29:47;9.60;99.90
19732;DHT22;10017;54.350;18.532;2022-09-12T02:39:57;9.60;99.90
19732;DHT22;10017;54.350;18.532;2022-09-12T02:42:30;9.60;99.90
19732;DHT22;10017;54.350;18.532;2022-09-12T02:45:02;9.60;99.90
19732;DHT22;10017;54.350;18.532;2022-09-12T02:48:09;9.60;99.90
19732;DHT22;10017;54.350;18.532;2022-09-12T02:50:32;9.60;99.90
19732;DHT22;10017;54.350;18.532;2022-09-12T02:53:05;9.60;99.90
19732;DHT22;10017;54.350;18.532;2022-09-12T02:55:38;9.70;99.90
19732;DHT22;10017;54.350;18.532;2022-09-12T02:58:12;9.70;99.90
19732;DHT22;10017;54.350;18.532;2022-09-12T03:00:47;9.70;99.90
19732;DHT22;10017;54.350;18.532;2022-09-12T03:06:06;9.70;99.90
19732;DHT22;10017;54.350;18.532;2022-09-12T03:11:24;9.60;99.90
19732;DHT22;10017;54.350;18.532;2022-09-12T03:25:16;9.60;99.90
19732;DHT22;10017;54.350;18.532;2022-09-12T03:28:00;9.60;99.90
19732;DHT22;10017;54.350;18.532;2022-09-12T03:30:38;9.60;99.90
19732;DHT22;10017;54.350;18.532;2022-09-12T03:33:14;9.60;99.90
19732;DHT22;10017;54.350;18.532;2022-09-12T03:35:46;9.60;99.90
19732;DHT22;10017;54.350;18.532;2022-09-12T03:38:19;9.60;99.90
19732;DHT22;10017;54.350;18.532;2022-09-12T03:40:50;9.60;99.90
19732;DHT22;10017;54.350;18.532;2022-09-12T03:43:25;9.50;99.90
19732;DHT22;10017;54.350;18.532;2022-09-12T03:45:57;9.60;99.90
19732;DHT22;10017;54.350;18.532;2022-09-12T03:48:29;9.60;99.90
19732;DHT22;10017;54.350;18.532;2022-09-12T03:51:03;9.60;99.90
19732;DHT22;10017;54.350;18.532;2022-09-12T03:53:35;9.50;99.90
19732;DHT22;10017;54.350;18.532;2022-09-12T03:56:08;9.60;99.90
19732;DHT22;10017;54.350;18.532;2022-09-12T03:58:40;9.60;99.90
19732;DHT22;10017;54.350;18.532;2022-09-12T04:01:13;9.50;99.90
19732;DHT22;10017;54.350;18.532;2022-09-12T04:03:47;9.50;99.90
19732;DHT22;10017;54.350;18.532;2022-09-12T04:06:20;9.50;99.90
19732;DHT22;10017;54.350;18.532;2022-09-12T04:08:52;9.50;99.90
19732;DHT22;10017;54.350;18.532;2022-09-12T04:11:24;9.50;99.90
19732;DHT22;10017;54.350;18.532;2022-09-12T04:13:56;9.50;99.90
19732;DHT22;10017;54.350;18.532;2022-09-12T04:16:28;9.50;99.90
19732;DHT22;10017;54.350;18.532;2022-09-12T04:19:00;9.60;99.90
19732;DHT22;10017;54.350;18.532;2022-09-12T04:21:31;9.50;99.90
19732;DHT22;10017;54.350;18.532;2022-09-12T04:24:06;9.50;99.90
19732;DHT22;10017;54.350;18.532;2022-09-12T04:26:37;9.50;99.90
19732;DHT22;10017;54.350;18.532;2022-09-12T04:29:12;9.50;99.90
19732;DHT22;10017;54.350;18.532;2022-09-12T04:31:45;9.50;99.90
19732;DHT22;10017;54.350;18.532;2022-09-12T04:34:17;9.50;99.90
19732;DHT22;10017;54.350;18.532;2022-09-12T04:36:49;9.50;99.90
19732;DHT22;10017;54.350;18.532;2022-09-12T04:39:21;9.50;99.90
19732;DHT22;10017;54.350;18.532;2022-09-12T04:41:52;9.50;99.90
19732;DHT22;10017;54.350;18.532;2022-09-12T04:44:24;9.50;99.90
19732;DHT22;10017;54.350;18.532;2022-09-12T04:46:56;9.50;99.90
19732;DHT22;10017;54.350;18.532;2022-09-12T04:49:28;9.60;99.90
19732;DHT22;10017;54.350;18.532;2022-09-12T04:52:02;9.60;99.90
19732;DHT22;10017;54.350;18.532;2022-09-12T04:54:36;9.70;99.90
19732;DHT22;10017;54.350;18.532;2022-09-12T04:57:08;9.80;99.90
19732;DHT22;10017;54.350;18.532;2022-09-12T04:59:40;9.90;99.90
19732;DHT22;10017;54.350;18.532;2022-09-12T05:02:12;9.90;99.90
19732;DHT22;10017;54.350;18.532;2022-09-12T05:04:45;9.90;99.90
19732;DHT22;10017;54.350;18.532;2022-09-12T05:07:17;10.00;99.90
19732;DHT22;10017;54.350;18.532;2022-09-12T05:09:49;10.10;99.90
19732;DHT22;10017;54.350;18.532;2022-09-12T05:12:21;10.20;99.90
19732;DHT22;10017;54.350;18.532;2022-09-12T05:14:53;10.30;99.90
19732;DHT22;10017;54.350;18.532;2022-09-12T05:17:27;10.30;99.90
19732;DHT22;10017;54.350;18.532;2022-09-12T05:20:02;10.40;99.90
19732;DHT22;10017;54.350;18.532;2022-09-12T05:22:34;10.40;99.90
19732;DHT22;10017;54.350;18.532;2022-09-12T05:25:06;10.50;99.90
19732;DHT22;10017;54.350;18.532;2022-09-12T05:27:38;10.60;99.90
19732;DHT22;10017;54.350;18.532;2022-09-12T05:30:10;10.70;99.90
19732;DHT22;10017;54.350;18.532;2022-09-12T05:32:42;10.70;99.90
19732;DHT22;10017;54.350;18.532;2022-09-12T05:35:14;10.80;99.90
19732;DHT22;10017;54.350;18.532;2022-09-12T05:37:46;10.80;99.90
19732;DHT22;10017;54.350;18.532;2022-09-12T05:40:17;10.90;99.90
19732;DHT22;10017;54.350;18.532;2022-09-12T05:42:49;11.00;99.90
19732;DHT22;10017;54.350;18.532;2022-09-12T05:45:21;11.00;99.90
19732;DHT22;10017;54.350;18.532;2022-09-12T05:47:55;11.10;99.90
19732;DHT22;10017;54.350;18.532;2022-09-12T05:50:29;11.20;99.90
19732;DHT22;10017;54.350;18.532;2022-09-12T05:53:01;11.30;99.90
19732;DHT22;10017;54.350;18.532;2022-09-12T05:55:32;11.40;99.90
19732;DHT22;10017;54.350;18.532;2022-09-12T05:58:05;11.50;99.90
19732;DHT22;10017;54.350;18.532;2022-09-12T06:00:37;11.50;99.90
19732;DHT22;10017;54.350;18.532;2022-09-12T06:03:09;11.70;99.90
19732;DHT22;10017;54.350;18.532;2022-09-12T06:05:41;11.80;99.90
19732;DHT22;10017;54.350;18.532;2022-09-12T06:08:13;11.90;99.90
19732;DHT22;10017;54.350;18.532;2022-09-12T06:10:45;12.00;99.90
19732;DHT22;10017;54.350;18.532;2022-09-12T06:13:16;12.10;99.90
19732;DHT22;10017;54.350;18.532;2022-09-12T06:15:48;12.20;99.90
19732;DHT22;10017;54.350;18.532;2022-09-12T06:18:20;12.20;99.90
19732;DHT22;10017;54.350;18.532;2022-09-12T06:20:52;12.20;99.90
19732;DHT22;10017;54.350;18.532;2022-09-12T06:23:24;12.30;99.90
19732;DHT22;10017;54.350;18.532;2022-09-12T06:25:57;12.30;99.90
19732;DHT22;10017;54.350;18.532;2022-09-12T06:28:29;12.40;99.90
19732;DHT22;10017;54.350;18.532;2022-09-12T06:31:05;12.50;99.90
19732;DHT22;10017;54.350;18.532;2022-09-12T06:33:38;12.70;99.90
19732;DHT22;10017;54.350;18.532;2022-09-12T06:36:11;13.00;99.90
19732;DHT22;10017;54.350;18.532;2022-09-12T06:38:46;14.10;99.90
19732;DHT22;10017;54.350;18.532;2022-09-12T06:41:19;15.50;99.90
19732;DHT22;10017;54.350;18.532;2022-09-12T06:43:52;16.00;26.00
19732;DHT22;10017;54.350;18.532;2022-09-12T06:46:24;16.10;19.40
19732;DHT22;10017;54.350;18.532;2022-09-12T06:48:56;16.70;1.00
19732;DHT22;10017;54.350;18.532;2022-09-12T06:51:31;17.10;1.00
19732;DHT22;10017;54.350;18.532;2022-09-12T06:54:03;17.40;1.00
19732;DHT22;10017;54.350;18.532;2022-09-12T06:56:35;18.30;1.00
19732;DHT22;10017;54.350;18.532;2022-09-12T06:59:08;19.20;1.00
19732;DHT22;10017;54.350;18.532;2022-09-12T07:01:40;19.50;1.00
19732;DHT22;10017;54.350;18.532;2022-09-12T07:04:12;19.70;1.00
19732;DHT22;10017;54.350;18.532;2022-09-12T07:06:44;20.10;1.00
19732;DHT22;10017;54.350;18.532;2022-09-12T07:09:16;19.90;1.00
19732;DHT22;10017;54.350;18.532;2022-09-12T07:11:48;20.00;1.00
19732;DHT22;10017;54.350;18.532;2022-09-12T07:14:19;20.40;1.00
19732;DHT22;10017;54.350;18.532;2022-09-12T07:16:54;20.50;1.00
19732;DHT22;10017;54.350;18.532;2022-09-12T07:19:25;20.00;1.00
19732;DHT22;10017;54.350;18.532;2022-09-12T07:21:57;19.70;1.00
19732;DHT22;10017;54.350;18.532;2022-09-12T07:24:29;19.50;1.00
19732;DHT22;10017;54.350;18.532;2022-09-12T07:27:01;20.20;1.00
19732;DHT22;10017;54.350;18.532;2022-09-12T07:29:32;20.40;1.00
19732;DHT22;10017;54.350;18.532;2022-09-12T07:32:08;20.00;1.00
19732;DHT22;10017;54.350;18.532;2022-09-12T07:34:43;20.20;1.00
19732;DHT22;10017;54.350;18.532;2022-09-12T07:37:15;20.30;1.00
19732;DHT22;10017;54.350;18.532;2022-09-12T07:39:47;20.10;1.00
19732;DHT22;10017;54.350;18.532;2022-09-12T07:42:21;19.60;1.00
19732;DHT22;10017;54.350;18.532;2022-09-12T07:44:53;19.30;1.00
19732;DHT22;10017;54.350;18.532;2022-09-12T07:47:25;19.20;1.00
19732;DHT22;10017;54.350;18.532;2022-09-12T07:49:57;18.50;1.00
19732;DHT22;10017;54.350;18.532;2022-09-12T07:52:29;18.10;1.00
19732;DHT22;10017;54.350;18.532;2022-09-12T07:55:04;18.00;1.00
19732;DHT22;10017;54.350;18.532;2022-09-12T07:57:36;18.00;1.00
19732;DHT22;10017;54.350;18.532;2022-09-12T08:00:08;18.00;1.00
19732;DHT22;10017;54.350;18.532;2022-09-12T08:02:42;18.00;1.00
19732;DHT22;10017;54.350;18.532;2022-09-12T08:05:14;18.00;1.00
19732;DHT22;10017;54.350;18.532;2022-09-12T08:07:48;17.80;1.00
19732;DHT22;10017;54.350;18.532;2022-09-12T08:10:20;17.70;1.00
19732;DHT22;10017;54.350;18.532;2022-09-12T08:12:56;17.40;1.00
19732;DHT22;10017;54.350;18.532;2022-09-12T08:15:28;17.30;1.00
19732;DHT22;10017;54.350;18.532;2022-09-12T08:18:00;17.10;1.00
19732;DHT22;10017;54.350;18.532;2022-09-12T08:20:32;17.10;1.00
19732;DHT22;10017;54.350;18.532;2022-09-12T08:23:03;16.90;1.00
19732;DHT22;10017;54.350;18.532;2022-09-12T08:25:35;16.60;1.00
19732;DHT22;10017;54.350;18.532;2022-09-12T08:28:07;16.60;1.00
19732;DHT22;10017;54.350;18.532;2022-09-12T08:30:39;16.40;1.00
19732;DHT22;10017;54.350;18.532;2022-09-12T08:33:11;16.50;1.00
19732;DHT22;10017;54.350;18.532;2022-09-12T08:35:46;16.60;1.00
19732;DHT22;10017;54.350;18.532;2022-09-12T08:38:17;16.60;1.00
19732;DHT22;10017;54.350;18.532;2022-09-12T08:40:52;16.50;1.00
19732;DHT22;10017;54.350;18.532;2022-09-12T08:46:27;16.50;1.00
19732;DHT22;10017;54.350;18.532;2022-09-12T08:49:01;16.80;1.00
19732;DHT22;10017;54.350;18.532;2022-09-12T08:51:33;16.80;1.00
19732;DHT22;10017;54.350;18.532;2022-09-12T08:54:08;16.70;1.00
19732;DHT22;10017;54.350;18.532;2022-09-12T08:56:42;16.50;1.00
19732;DHT22;10017;54.350;18.532;2022-09-12T08:59:15;16.40;1.00
19732;DHT22;10017;54.350;18.532;2022-09-12T09:01:47;16.40;1.00
19732;DHT22;10017;54.350;18.532;2022-09-12T09:17:47;17.50;1.00
19732;DHT22;10017;54.350;18.532;2022-09-12T09:22:56;17.40;1.00
19732;DHT22;10017;54.350;18.532;2022-09-12T09:25:36;17.50;1.00
19732;DHT22;10017;54.350;18.532;2022-09-12T09:28:14;17.60;1.00
19732;DHT22;10017;54.350;18.532;2022-09-12T09:30:47;17.70;1.00
19732;DHT22;10017;54.350;18.532;2022-09-12T09:33:21;17.80;1.00
19732;DHT22;10017;54.350;18.532;2022-09-12T09:36:05;17.80;1.00
19732;DHT22;10017;54.350;18.532;2022-09-12T09:38:49;17.60;1.00
19732;DHT22;10017;54.350;18.532;2022-09-12T09:41:24;17.30;1.00
19732;DHT22;10017;54.350;18.532;2022-09-12T09:44:00;17.00;1.00
19732;DHT22;10017;54.350;18.532;2022-09-12T09:46:33;17.00;1.00
19732;DHT22;10017;54.350;18.532;2022-09-12T09:49:08;17.20;1.00
19732;DHT22;10017;54.350;18.532;2022-09-12T09:51:43;17.30;1.00
19732;DHT22;10017;54.350;18.532;2022-09-12T09:54:22;17.50;1.00
19732;DHT22;10017;54.350;18.532;2022-09-12T09:56:54;17.60;1.00
19732;DHT22;10017;54.350;18.532;2022-09-12T10:01:59;17.70;1.00
19732;DHT22;10017;54.350;18.532;2022-09-12T10:04:40;17.60;1.00
19732;DHT22;10017;54.350;18.532;2022-09-12T10:07:19;17.50;1.00
19732;DHT22;10017;54.350;18.532;2022-09-12T10:12:36;17.60;1.00
19732;DHT22;10017;54.350;18.532;2022-09-12T10:15:18;17.70;1.00
19732;DHT22;10017;54.350;18.532;2022-09-12T10:17:51;17.90;1.00
19732;DHT22;10017;54.350;18.532;2022-09-12T10:20:39;18.10;1.00
19732;DHT22;10017;54.350;18.532;2022-09-12T10:25:52;18.30;1.00
19732;DHT22;10017;54.350;18.532;2022-09-12T10:28:57;18.00;99.90
19732;DHT22;10017;54.350;18.532;2022-09-12T10:31:31;17.90;1.00
19732;DHT22;10017;54.350;18.532;2022-09-12T10:34:04;17.90;99.90
19732;DHT22;10017;54.350;18.532;2022-09-12T10:36:36;17.80;1.00
19732;DHT22;10017;54.350;18.532;2022-09-12T10:39:10;17.60;1.00
19732;DHT22;10017;54.350;18.532;2022-09-12T10:41:46;17.50;99.90
19732;DHT22;10017;54.350;18.532;2022-09-12T10:44:25;17.60;1.00
19732;DHT22;10017;54.350;18.532;2022-09-12T10:46:58;17.80;1.00
19732;DHT22;10017;54.350;18.532;2022-09-12T10:49:30;17.90;1.00
19732;DHT22;10017;54.350;18.532;2022-09-12T10:52:41;18.00;1.00
19732;DHT22;10017;54.350;18.532;2022-09-12T10:55:10;17.90;1.00
19732;DHT22;10017;54.350;18.532;2022-09-12T11:00:21;18.10;1.00
19732;DHT22;10017;54.350;18.532;2022-09-12T11:05:37;17.80;1.00
19732;DHT22;10017;54.350;18.532;2022-09-12T11:11:01;17.50;1.00
19732;DHT22;10017;54.350;18.532;2022-09-12T11:17:12;17.70;99.90
19732;DHT22;10017;54.350;18.532;2022-09-12T11:30:08;17.50;1.00
19732;DHT22;10017;54.350;18.532;2022-09-12T11:38:02;17.80;1.00
19732;DHT22;10017;54.350;18.532;2022-09-12T11:45:52;17.90;1.00
19732;DHT22;10017;54.350;18.532;2022-09-12T11:48:42;17.60;1.00
19732;DHT22;10017;54.350;18.532;2022-09-12T11:51:19;17.50;1.00
19732;DHT22;10017;54.350;18.532;2022-09-12T11:53:57;17.50;1.00
19732;DHT22;10017;54.350;18.532;2022-09-12T11:56:30;17.60;1.00
19732;DHT22;10017;54.350;18.532;2022-09-12T11:59:03;17.80;1.00
19732;DHT22;10017;54.350;18.532;2022-09-12T12:01:40;17.90;1.00
19732;DHT22;10017;54.350;18.532;2022-09-12T12:04:19;18.00;1.00
19732;DHT22;10017;54.350;18.532;2022-09-12T12:07:00;18.00;1.00
19732;DHT22;10017;54.350;18.532;2022-09-12T12:09:49;17.70;1.00
19732;DHT22;10017;54.350;18.532;2022-09-12T12:12:24;17.40;1.00
19732;DHT22;10017;54.350;18.532;2022-09-12T12:14:57;17.10;1.00
19732;DHT22;10017;54.350;18.532;2022-09-12T12:17:30;16.90;1.00
19732;DHT22;10017;54.350;18.532;2022-09-12T12:20:03;16.90;1.00
19732;DHT22;10017;54.350;18.532;2022-09-12T12:22:39;17.00;1.00
19732;DHT22;10017;54.350;18.532;2022-09-12T12:25:22;17.10;1.00
19732;DHT22;10017;54.350;18.532;2022-09-12T12:28:00;17.20;1.00
19732;DHT22;10017;54.350;18.532;2022-09-12T12:30:57;17.10;1.00
19732;DHT22;10017;54.350;18.532;2022-09-12T12:38:35;16.80;1.00
19732;DHT22;10017;54.350;18.532;2022-09-12T12:43:52;16.90;1.00
19732;DHT22;10017;54.350;18.532;2022-09-12T12:46:28;17.10;1.00
19732;DHT22;10017;54.350;18.532;2022-09-12T12:49:16;17.30;1.00
19732;DHT22;10017;54.350;18.532;2022-09-12T12:55:12;17.00;1.00
19732;DHT22;10017;54.350;18.532;2022-09-12T12:57:38;16.80;1.00
19732;DHT22;10017;54.350;18.532;2022-09-12T13:02:56;16.50;1.00
19732;DHT22;10017;54.350;18.532;2022-09-12T13:05:37;16.50;1.00
19732;DHT22;10017;54.350;18.532;2022-09-12T13:08:31;16.50;1.00
19732;DHT22;10017;54.350;18.532;2022-09-12T13:11:36;16.60;1.00
19732;DHT22;10017;54.350;18.532;2022-09-12T13:14:02;16.80;1.00
19732;DHT22;10017;54.350;18.532;2022-09-12T13:16:36;17.00;1.00
19732;DHT22;10017;54.350;18.532;2022-09-12T13:19:12;17.10;1.00
19732;DHT22;10017;54.350;18.532;2022-09-12T13:21:55;17.30;1.00
19732;DHT22;10017;54.350;18.532;2022-09-12T13:24:27;17.30;1.00
19732;DHT22;10017;54.350;18.532;2022-09-12T13:26:59;17.30;1.00
19732;DHT22;10017;54.350;18.532;2022-09-12T13:29:33;17.30;1.00
19732;DHT22;10017;54.350;18.532;2022-09-12T13:32:05;17.30;1.00
19732;DHT22;10017;54.350;18.532;2022-09-12T13:37:35;17.30;1.00
19732;DHT22;10017;54.350;18.532;2022-09-12T13:43:06;17.50;1.00
19732;DHT22;10017;54.350;18.532;2022-09-12T13:45:39;17.60;1.00
19732;DHT22;10017;54.350;18.532;2022-09-12T13:48:18;17.70;1.00
19732;DHT22;10017;54.350;18.532;2022-09-12T13:50:55;17.80;1.00
19732;DHT22;10017;54.350;18.532;2022-09-12T13:53:29;17.80;1.00
19732;DHT22;10017;54.350;18.532;2022-09-12T13:56:02;17.90;1.00
19732;DHT22;10017;54.350;18.532;2022-09-12T13:58:34;18.30;1.00
19732;DHT22;10017;54.350;18.532;2022-09-12T14:03:41;18.90;1.00
19732;DHT22;10017;54.350;18.532;2022-09-12T14:06:51;19.50;1.00
19732;DHT22;10017;54.350;18.532;2022-09-12T14:09:29;20.20;99.90
19732;DHT22;10017;54.350;18.532;2022-09-12T14:12:10;20.50;1.00
19732;DHT22;10017;54.350;18.532;2022-09-12T14:14:49;20.20;99.90
19732;DHT22;10017;54.350;18.532;2022-09-12T14:17:34;19.60;1.00
19732;DHT22;10017;54.350;18.532;2022-09-12T14:20:11;19.20;1.00
19732;DHT22;10017;54.350;18.532;2022-09-12T14:22:44;18.80;1.00
19732;DHT22;10017;54.350;18.532;2022-09-12T14:25:22;18.60;99.90
19732;DHT22;10017;54.350;18.532;2022-09-12T14:27:55;18.40;1.00
19732;DHT22;10017;54.350;18.532;2022-09-12T14:30:30;18.20;99.90
19732;DHT22;10017;54.350;18.532;2022-09-12T14:35:42;17.90;1.00
19732;DHT22;10017;54.350;18.532;2022-09-12T14:40:46;17.70;1.00
19732;DHT22;10017;54.350;18.532;2022-09-12T14:45:54;17.50;1.00
19732;DHT22;10017;54.350;18.532;2022-09-12T14:48:27;17.50;1.00
19732;DHT22;10017;54.350;18.532;2022-09-12T14:51:00;17.50;1.00
19732;DHT22;10017;54.350;18.532;2022-09-12T14:53:34;17.50;1.00
19732;DHT22;10017;54.350;18.532;2022-09-12T14:56:10;17.30;1.00
19732;DHT22;10017;54.350;18.532;2022-09-12T14:58:42;17.30;1.00
19732;DHT22;10017;54.350;18.532;2022-09-12T15:06:30;17.10;1.00
19732;DHT22;10017;54.350;18.532;2022-09-12T15:09:04;16.90;1.00
19732;DHT22;10017;54.350;18.532;2022-09-12T15:11:37;16.70;1.00
19732;DHT22;10017;54.350;18.532;2022-09-12T15:14:12;16.50;1.00
19732;DHT22;10017;54.350;18.532;2022-09-12T15:16:44;16.50;1.00
19732;DHT22;10017;54.350;18.532;2022-09-12T15:19:16;16.40;1.00
19732;DHT22;10017;54.350;18.532;2022-09-12T15:21:48;16.40;1.00
19732;DHT22;10017;54.350;18.532;2022-09-12T15:24:20;16.40;1.00
19732;DHT22;10017;54.350;18.532;2022-09-12T15:26:51;16.40;1.00
19732;DHT22;10017;54.350;18.532;2022-09-12T15:29:25;16.40;1.00
19732;DHT22;10017;54.350;18.532;2022-09-12T15:31:57;16.30;1.00
19732;DHT22;10017;54.350;18.532;2022-09-12T15:34:29;16.30;1.00
19732;DHT22;10017;54.350;18.532;2022-09-12T15:37:01;16.30;1.00
19732;DHT22;10017;54.350;18.532;2022-09-12T15:39:33;16.30;1.00
19732;DHT22;10017;54.350;18.532;2022-09-12T15:42:05;16.30;1.00
19732;DHT22;10017;54.350;18.532;2022-09-12T15:44:37;16.30;1.00
19732;DHT22;10017;54.350;18.532;2022-09-12T15:47:09;16.30;1.00
19732;DHT22;10017;54.350;18.532;2022-09-12T15:49:42;16.30;1.00
19732;DHT22;10017;54.350;18.532;2022-09-12T15:52:14;16.30;1.00
19732;DHT22;10017;54.350;18.532;2022-09-12T15:54:47;16.30;1.00
19732;DHT22;10017;54.350;18.532;2022-09-12T15:57:18;16.30;1.00
19732;DHT22;10017;54.350;18.532;2022-09-12T15:59:53;16.20;1.00
19732;DHT22;10017;54.350;18.532;2022-09-12T16:02:25;16.10;1.00
19732;DHT22;10017;54.350;18.532;2022-09-12T16:04:57;16.10;1.00
19732;DHT22;10017;54.350;18.532;2022-09-12T16:07:29;16.00;1.00
19732;DHT22;10017;54.350;18.532;2022-09-12T16:10:00;15.90;9.50
19732;DHT22;10017;54.350;18.532;2022-09-12T16:12:32;15.80;15.80
19732;DHT22;10017;54.350;18.532;2022-09-12T16:15:04;15.70;24.40
19732;DHT22;10017;54.350;18.532;2022-09-12T16:17:36;15.60;31.30
19732;DHT22;10017;54.350;18.532;2022-09-12T16:20:08;15.50;47.30
19732;DHT22;10017;54.350;18.532;2022-09-12T16:22:40;15.30;61.00
19732;DHT22;10017;54.350;18.532;2022-09-12T16:25:12;15.20;86.50
19732;DHT22;10017;54.350;18.532;2022-09-12T16:27:44;15.10;94.60
19732;DHT22;10017;54.350;18.532;2022-09-12T16:30:19;14.90;99.90
19732;DHT22;10017;54.350;18.532;2022-09-12T16:32:51;14.80;99.90
19732;DHT22;10017;54.350;18.532;2022-09-12T16:35:22;14.70;99.90
19732;DHT22;10017;54.350;18.532;2022-09-12T16:37:54;14.70;99.90
19732;DHT22;10017;54.350;18.532;2022-09-12T16:40:26;14.60;99.90
19732;DHT22;10017;54.350;18.532;2022-09-12T16:43:00;14.50;99.90
19732;DHT22;10017;54.350;18.532;2022-09-12T16:45:32;14.50;99.90
19732;DHT22;10017;54.350;18.532;2022-09-12T16:48:04;14.40;99.90
19732;DHT22;10017;54.350;18.532;2022-09-12T16:50:36;14.40;99.90
19732;DHT22;10017;54.350;18.532;2022-09-12T16:53:08;14.30;99.90
19732;DHT22;10017;54.350;18.532;2022-09-12T16:55:47;14.30;99.90
19732;DHT22;10017;54.350;18.532;2022-09-12T16:58:18;14.20;99.90
19732;DHT22;10017;54.350;18.532;2022-09-12T17:01:33;14.10;99.90
19732;DHT22;10017;54.350;18.532;2022-09-12T17:03:46;14.10;99.90
19732;DHT22;10017;54.350;18.532;2022-09-12T17:06:18;14.00;99.90
19732;DHT22;10017;54.350;18.532;2022-09-12T17:08:51;13.90;99.90
19732;DHT22;10017;54.350;18.532;2022-09-12T17:11:27;13.90;99.90
19732;DHT22;10017;54.350;18.532;2022-09-12T17:14:03;13.80;99.90
19732;DHT22;10017;54.350;18.532;2022-09-12T17:16:39;13.70;99.90
19732;DHT22;10017;54.350;18.532;2022-09-12T17:19:16;13.70;99.90
19732;DHT22;10017;54.350;18.532;2022-09-12T17:21:48;13.60;99.90
19732;DHT22;10017;54.350;18.532;2022-09-12T17:24:20;13.50;99.90
19732;DHT22;10017;54.350;18.532;2022-09-12T17:26:53;13.50;99.90
19732;DHT22;10017;54.350;18.532;2022-09-12T17:29:25;13.50;99.90
19732;DHT22;10017;54.350;18.532;2022-09-12T17:31:58;13.40;99.90
19732;DHT22;10017;54.350;18.532;2022-09-12T17:34:30;13.30;99.90
19732;DHT22;10017;54.350;18.532;2022-09-12T17:37:02;13.20;99.90
19732;DHT22;10017;54.350;18.532;2022-09-12T17:39:34;13.20;99.90
19732;DHT22;10017;54.350;18.532;2022-09-12T17:42:06;13.10;99.90
19732;DHT22;10017;54.350;18.532;2022-09-12T17:44:42;13.00;99.90
19732;DHT22;10017;54.350;18.532;2022-09-12T17:47:16;13.00;99.90
19732;DHT22;10017;54.350;18.532;2022-09-12T17:49:49;12.90;99.90
19732;DHT22;10017;54.350;18.532;2022-09-12T17:52:21;12.80;99.90
19732;DHT22;10017;54.350;18.532;2022-09-12T17:54:53;12.90;99.90
19732;DHT22;10017;54.350;18.532;2022-09-12T17:57:31;12.80;99.90
19732;DHT22;10017;54.350;18.532;2022-09-12T18:00:03;12.80;99.90
19732;DHT22;10017;54.350;18.532;2022-09-12T18:02:36;12.80;99.90
19732;DHT22;10017;54.350;18.532;2022-09-12T18:05:09;12.70;99.90
19732;DHT22;10017;54.350;18.532;2022-09-12T18:07:41;12.70;99.90
19732;DHT22;10017;54.350;18.532;2022-09-12T18:10:14;12.60;99.90
19732;DHT22;10017;54.350;18.532;2022-09-12T18:12:46;12.60;99.90
19732;DHT22;10017;54.350;18.532;2022-09-12T18:15:19;12.60;99.90
19732;DHT22;10017;54.350;18.532;2022-09-12T18:17:51;12.50;99.90
19732;DHT22;10017;54.350;18.532;2022-09-12T18:20:25;12.50;99.90
19732;DHT22;10017;54.350;18.532;2022-09-12T18:22:58;12.50;99.90
19732;DHT22;10017;54.350;18.532;2022-09-12T18:25:30;12.40;99.90
19732;DHT22;10017;54.350;18.532;2022-09-12T18:28:02;12.40;99.90
19732;DHT22;10017;54.350;18.532;2022-09-12T18:30:39;12.40;99.90
19732;DHT22;10017;54.350;18.532;2022-09-12T18:33:12;12.30;99.90
19732;DHT22;10017;54.350;18.532;2022-09-12T18:35:54;12.30;99.90
19732;DHT22;10017;54.350;18.532;2022-09-12T18:38:26;12.30;99.90
19732;DHT22;10017;54.350;18.532;2022-09-12T18:41:05;12.30;99.90
19732;DHT22;10017;54.350;18.532;2022-09-12T18:43:37;12.30;99.90
19732;DHT22;10017;54.350;18.532;2022-09-12T18:46:14;12.30;99.90
19732;DHT22;10017;54.350;18.532;2022-09-12T18:48:47;12.20;99.90